Muskegon, MI

10:38 AM EST on January 25, 2015 (GMT -0500)
North Muskegon | Change Station
CLOSE
Current Station
Personal Weather Station
Location: North Muskegon, MI
Elevation: 630 ft
Nearby Weather Stations

Elev 630 ft 43.25 °N, 86.27 °W | Updated 2 seconds ago

Mostly Cloudy
Mostly Cloudy
22.4 °F
Feels Like 17 °F
N
4.0
Wind Variable Wind from East
Gusts 15.0 mph

Today
High -- | Low -- °F
--% Chance of Precip.
Yesterday
High -- | Low -- °F
Precip. -- in
8:07 AM 5:47 PM
Waxing Crescent, 33% visible
Pressure 29.91 in
Visibility 10.0 miles
Clouds Mostly Cloudy 15000 ft
Windchill 17 °F
Dew Point 13 °F
Humidity 68%
Rainfall 0.00 in
Snow Depth Not available.
UV 1 out of 12
Pollen .10 out of 12
Air Quality Not available.
Flu Activity Not available.
METAR KMKG 251455Z 06010KT 10SM BKN150 M05/M12 A2988 RMK AO2 SLP127 T10501117 53024

More Conditions Fewer Conditions

Pressure 29.91 in
Visibility 10.0 miles
Clouds Mostly Cloudy 15000 ft
Windchill 17 °F
Dew Point 13 °F
Humidity 68%
Rainfall 0.00 in
Snow Depth Not available.
UV 1 out of 12
Pollen .10 out of 12
Air Quality Not available.
Flu Activity Not available.
METAR KMKG 251455Z 06010KT 10SM BKN150 M05/M12 A2988 RMK AO2 SLP127 T10501117 53024

More Conditions Fewer Conditions

10-Day Weather Forecast

Almanac

Astronomy

Jan. 25, 2015 Rise Set
Actual Time
Civil Twilight
Nautical Twilight
Astronomical Twilight
Moon
Length of Visible Light
Length of Day
Tomorrow will be .
, % of the Moon is Illuminated

Today's Extremes

State Highs State Lows

Community

WunderPhotos

Upload Photos

1,789,923 photos uploaded!

WunderBlogs® & News

Nearby

Air Quality

  Air Quality AQ Index Pollutant
Not available.

Snow Depth

Station Depth Elevation

Earthquake Activity

City Distance Mag. Time & Date
Minimum magnitude displayed is 2.5.

Coastal Water Temperatures

Place Temperature

Nearby Weather Stations